EPKKEPPO

Guest
Details From EPKK - BALICE
To EPPO - LAWICA
Flight Number -
Tags generated
Created
Modified
Stats Distance 181 nm / 335 km
Max Altitude 22,600 ft / 6,888 m
Waypoints 4
Social Downloads 0
Likes 0
Share VATSIM

Download

Looking for another format? Having issues loading an existing format? Contact us
Advertisement - Login to hide

Notes

Basic altitude profile: - Ascent Rate: 2500ft/min - Ascent Speed: 250kts - Cruise Altitude: 18000ft - Cruise Speed: 420kts - Descent Rate: 1500ft/min - Descent Speed: 250kts Options: - Use NATs: no - Use PACOTS: no - Use low airways: yes - Use high airways: no

Route

EPKK BAREX L623 BESTO EPPO

ID Type Via Altitude Latitude Longitude Leg Dist Tot Dist Heading (true) Name
O EPKK APT - 0 ft / 0 m 50.07782˚ 19.78550˚ - 0 nm - BALICE
BAREX FIX - 22,600 ft / 6,888 m 50.89444˚ 18.73833˚ 63 nm 63 nm 321° / 320° -
BESTO FIX L623 (AWY-LO) 18,500 ft / 5,639 m 51.73000˚ 17.39889˚ 71 nm 134 nm 315° / 314° -
O EPPO APT - 0 ft / 0 m 52.42157˚ 16.82355˚ 46 nm 180 nm 333° / 333° LAWICA

Altitude Profile

Advertisement - Login to hide

Weather


0- 5 10 15 20 25 30 35+ Temperature / ° C

Clouds and Precipitation
Forecast for 2018-05-24 18:00 UTC. Updated 4 hours ago

Ground ~20,000 ft ~40,000 ft Winds

EPKK

Details ICAO EPKK (KRK)
Name BALICE
Region Poland
Timezone Europe/Warsaw (UTC+2.0)
Stats Elevation 791 ft / 241 m (AMSL)
Location 50.077821° 19.785503°
Runways 1
Magnetic Variation 5.256° E

METAR

EPKK 242100Z 05005KT 9999 FEW060 16/10 Q1020

Decode

TAF

TAF TAF EPKK 242030Z 2421/2521 04008KT CAVOK PROB40 TEMPO 2512/2519 SCT040CB

Decode

Departure Runways

ID Width Length Bearing (true) Bearing (mag) Surface Threshold Offset Overrun Length
07 197 ft / 60 m 8,343 ft / 2,543 m 77.75° 72.49° Concrete 0 ft / 0 m 0 ft / 0 m
25 197 ft / 60 m 8,343 ft / 2,543 m 257.77° 252.51° Concrete 784 ft / 239 m 0 ft / 0 m

EPPO

Details ICAO EPPO (POZ)
Name LAWICA
Region Poland
Timezone Europe/Warsaw (UTC+2.0)
Stats Elevation 308 ft / 94 m (AMSL)
Location 52.421566° 16.823549°
Runways 1
Magnetic Variation 4.793° E

METAR

EPPO 242100Z 07009KT CAVOK 18/09 Q1023

Decode

TAF

TAF EPPO 241730Z 2418/2518 07010KT CAVOK TEMPO 2509/2518 SCT045CB PROB30 TEMPO 2514/2518 VRB18G35KT TSRA

Decode

Destination Runways

ID Width Length Bearing (true) Bearing (mag) Surface Threshold Offset Overrun Length
11 164 ft / 50 m 8,153 ft / 2,485 m 107.57° 102.78° Asphalt 0 ft / 0 m 0 ft / 0 m
29 164 ft / 50 m 8,153 ft / 2,485 m 287.59° 282.80° Asphalt 0 ft / 0 m 0 ft / 0 m

Approach Navaids

Runway Type Ident Frequency Range Bearing (true) Bearing (mag) Slope Elevation
29 Localiser POZ 110.30 MHz 18 nm / 33 km 287.57° 282.77° - 308 ft / 94 m (AMSL)
29 Glidescope POZ 110.30 MHz 10 nm / 19 km 287.58° 282.79° 3.00° 308 ft / 94 m (AMSL)
29 DME POZ 110.30 MHz 18 nm / 33 km - - - 331 ft / 101 m (AMSL)

Popular Alternatives